createdAt,value
2019-03-03T00:00:59.636Z,0
2019-03-03T00:01:59.762Z,0
2019-03-03T00:03:01.174Z,0
2019-03-03T00:04:01.862Z,0
2019-03-03T00:05:03.113Z,0
2019-03-03T00:06:03.201Z,0
2019-03-03T00:07:03.886Z,0
2019-03-03T00:08:05.404Z,0
2019-03-03T00:09:05.533Z,0
2019-03-03T00:10:07.506Z,0
2019-03-03T00:11:07.187Z,0
2019-03-03T00:12:08.316Z,0
2019-03-03T00:13:09.717Z,0
2019-03-03T00:14:10.425Z,0
2019-03-03T00:15:10.552Z,0
2019-03-03T00:16:11.360Z,0
2019-03-03T00:17:12.044Z,0
2019-03-03T00:18:12.449Z,0
2019-03-03T00:19:12.855Z,0
2019-03-03T00:20:13.266Z,0
2019-03-03T00:21:13.672Z,0
2019-03-03T00:22:14.079Z,0
2019-03-03T00:23:15.211Z,0
2019-03-03T00:24:16.618Z,0
2019-03-03T00:25:17.302Z,0
2019-03-03T00:26:18.673Z,0
2019-03-03T00:27:19.931Z,0
2019-03-03T00:28:19.341Z,0
2019-03-03T00:29:20.032Z,0
2019-03-03T00:30:20.716Z,0
2019-03-03T00:31:21.399Z,0
2019-03-03T00:32:22.641Z,0
2019-03-03T00:33:23.604Z,0
2019-03-03T00:34:23.731Z,0
2019-03-03T00:35:25.419Z,0
2019-03-03T00:36:27.117Z,0
2019-03-03T00:37:27.527Z,0
2019-03-03T00:38:28.210Z,0
2019-03-03T00:39:28.660Z,0
2019-03-03T00:40:29.121Z,0
2019-03-03T00:41:29.529Z,0
2019-03-03T00:42:29.940Z,0
2019-03-03T00:43:30.069Z,0
2019-03-03T00:44:31.756Z,0
2019-03-03T00:45:32.165Z,0
2019-03-03T00:46:33.258Z,0
2019-03-03T00:47:33.491Z,0
2019-03-03T00:48:33.616Z,0
2019-03-03T00:49:35.582Z,0
2019-03-03T00:50:36.270Z,0
2019-03-03T00:51:36.675Z,0
2019-03-03T00:52:37.393Z,0
2019-03-03T00:53:38.076Z,0
2019-03-03T00:54:38.532Z,0
2019-03-03T00:55:39.664Z,0
2019-03-03T00:56:40.765Z,0
2019-03-03T00:57:42.008Z,0
2019-03-03T00:58:42.690Z,0
2019-03-03T00:59:43.388Z,0
2019-03-03T01:00:43.517Z,0
2019-03-03T01:01:45.482Z,0
2019-03-03T01:02:45.443Z,0
2019-03-03T01:03:45.850Z,0
2019-03-03T01:04:47.553Z,0
2019-03-03T01:05:48.518Z,0
2019-03-03T01:06:49.325Z,0
2019-03-03T01:07:49.731Z,0
2019-03-03T01:08:49.858Z,0
2019-03-03T01:09:52.151Z,0
2019-03-03T01:10:52.283Z,0
2019-03-03T01:11:53.690Z,0
2019-03-03T01:12:54.930Z,0
2019-03-03T01:13:57.762Z,0
2019-03-03T01:14:56.456Z,0
2019-03-03T01:15:57.583Z,0
2019-03-03T01:16:57.836Z,0
2019-03-03T01:17:59.806Z,0
2019-03-03T01:19:00.497Z,0
2019-03-03T01:20:00.957Z,0
2019-03-03T01:21:01.366Z,0
2019-03-03T01:22:02.638Z,0
2019-03-03T01:23:05.262Z,0
2019-03-03T01:24:06.500Z,0
2019-03-03T01:25:06.910Z,0
2019-03-03T01:26:07.037Z,0
2019-03-03T01:27:07.569Z,0
2019-03-03T01:28:07.972Z,0
2019-03-03T01:29:10.213Z,0
2019-03-03T01:30:09.343Z,0
2019-03-03T01:31:09.748Z,0
2019-03-03T01:32:11.432Z,0
2019-03-03T01:33:11.839Z,0
2019-03-03T01:34:12.804Z,0
2019-03-03T01:35:14.047Z,0
2019-03-03T01:36:14.733Z,0
2019-03-03T01:37:16.134Z,0
2019-03-03T01:38:16.542Z,0
2019-03-03T01:39:16.671Z,0
2019-03-03T01:40:17.801Z,0
2019-03-03T01:41:18.932Z,0
2019-03-03T01:42:20.337Z,0
2019-03-03T01:43:21.020Z,0
2019-03-03T01:44:21.146Z,0
2019-03-03T01:45:22.833Z,0
2019-03-03T01:46:23.526Z,0
2019-03-03T01:47:24.973Z,0
2019-03-03T01:48:25.387Z,0
2019-03-03T01:49:26.072Z,0
2019-03-03T01:50:26.203Z,0
2019-03-03T01:51:27.441Z,0
2019-03-03T01:52:27.574Z,0
2019-03-03T01:53:29.296Z,0
2019-03-03T01:54:29.977Z,0
2019-03-03T01:55:30.664Z,0
2019-03-03T01:56:31.352Z,0
2019-03-03T01:57:31.784Z,0
2019-03-03T01:58:32.200Z,0
2019-03-03T01:59:33.889Z,0
2019-03-03T02:00:34.585Z,0
2019-03-03T02:01:34.277Z,0
2019-03-03T02:02:35.701Z,0
2019-03-03T02:03:36.672Z,0
2019-03-03T02:04:36.864Z,0
2019-03-03T02:05:37.277Z,0
2019-03-03T02:06:38.966Z,0
2019-03-03T02:07:39.089Z,0
2019-03-03T02:08:40.502Z,0
2019-03-03T02:09:41.474Z,0
2019-03-03T02:10:42.172Z,0
2019-03-03T02:11:43.693Z,0
2019-03-03T02:12:43.105Z,0
2019-03-03T02:13:44.120Z,0
2019-03-03T02:14:44.093Z,0
2019-03-03T02:15:44.784Z,0
2019-03-03T02:16:46.353Z,0
2019-03-03T02:17:45.912Z,0
2019-03-03T02:18:47.361Z,0
2019-03-03T02:19:47.773Z,0
2019-03-03T02:20:48.192Z,0
2019-03-03T02:21:48.886Z,0
2019-03-03T02:22:49.044Z,0
2019-03-03T02:23:49.455Z,0
2019-03-03T02:24:51.152Z,0
2019-03-03T02:25:51.569Z,0
2019-03-03T02:26:51.982Z,0
2019-03-03T02:27:52.249Z,0
2019-03-03T02:28:53.662Z,0
2019-03-03T02:29:54.128Z,0
2019-03-03T02:30:54.847Z,0
2019-03-03T02:31:55.827Z,0
2019-03-03T02:32:56.807Z,0
2019-03-03T02:33:58.338Z,0
2019-03-03T02:34:58.896Z,0
2019-03-03T02:35:59.164Z,0
2019-03-03T02:36:59.729Z,0
2019-03-03T02:38:00.729Z,0
2019-03-03T02:39:01.450Z,0
2019-03-03T02:40:02.839Z,0
2019-03-03T02:41:03.141Z,0
2019-03-03T02:42:03.717Z,0
2019-03-03T02:43:04.842Z,0
2019-03-03T02:44:04.579Z,0
2019-03-03T02:45:06.404Z,0
2019-03-03T02:46:06.938Z,0
2019-03-03T02:47:07.253Z,0
2019-03-03T02:48:08.222Z,0
2019-03-03T02:49:08.487Z,0
2019-03-03T02:50:09.733Z,0
2019-03-03T02:51:11.547Z,0
2019-03-03T02:52:11.518Z,0
2019-03-03T02:53:11.765Z,0
2019-03-03T02:54:12.292Z,0
2019-03-03T02:55:12.272Z,0
2019-03-03T02:56:12.803Z,0
2019-03-03T02:57:13.237Z,0
2019-03-03T02:58:14.476Z,0
2019-03-03T02:59:14.921Z,0
2019-03-03T03:00:17.033Z,0
2019-03-03T03:01:17.005Z,0
2019-03-03T03:02:17.978Z,0
2019-03-03T03:03:18.780Z,0
2019-03-03T03:04:19.337Z,0
2019-03-03T03:05:20.171Z,0
2019-03-03T03:06:20.433Z,0
2019-03-03T03:07:20.439Z,0
2019-03-03T03:08:21.534Z,0
2019-03-03T03:09:21.503Z,0
2019-03-03T03:10:22.595Z,0
2019-03-03T03:11:23.229Z,0
2019-03-03T03:12:24.205Z,0
2019-03-03T03:13:25.738Z,0
2019-03-03T03:14:27.819Z,0
2019-03-03T03:15:28.902Z,0
2019-03-03T03:16:29.161Z,0
2019-03-03T03:17:29.861Z,0
2019-03-03T03:18:31.408Z,0
2019-03-03T03:19:31.117Z,0
2019-03-03T03:20:32.385Z,0
2019-03-03T03:21:33.416Z,0
2019-03-03T03:22:35.578Z,0
2019-03-03T03:23:35.101Z,0
2019-03-03T03:24:35.072Z,0
2019-03-03T03:25:36.320Z,0
2019-03-03T03:26:36.298Z,0
2019-03-03T03:27:37.545Z,0
2019-03-03T03:28:37.973Z,0
2019-03-03T03:29:38.676Z,0
2019-03-03T03:30:40.869Z,0
2019-03-03T03:31:41.182Z,0
2019-03-03T03:32:41.735Z,0
2019-03-03T03:33:42.570Z,0
2019-03-03T03:34:43.139Z,0
2019-03-03T03:35:43.764Z,0
2019-03-03T03:36:44.762Z,0
2019-03-03T03:37:45.741Z,0
2019-03-03T03:38:47.278Z,0
2019-03-03T03:39:46.984Z,0
2019-03-03T03:40:47.682Z,0
2019-03-03T03:41:48.935Z,0
2019-03-03T03:42:49.927Z,0
2019-03-03T03:43:51.218Z,0
2019-03-03T03:44:51.469Z,0
2019-03-03T03:45:52.755Z,0
2019-03-03T03:46:53.284Z,0
2019-03-03T03:47:52.981Z,0
2019-03-03T03:48:54.320Z,0
2019-03-03T03:49:54.874Z,0
2019-03-03T03:50:54.623Z,0
2019-03-03T03:51:58.009Z,0
2019-03-03T03:52:58.290Z,0
2019-03-03T03:53:59.112Z,0
2019-03-03T03:54:58.855Z,0
2019-03-03T03:56:00.122Z,0
2019-03-03T03:57:01.378Z,0
2019-03-03T03:58:02.467Z,0
2019-03-03T03:59:02.819Z,0
2019-03-03T04:00:03.367Z,0
2019-03-03T04:01:04.750Z,0
2019-03-03T04:02:04.842Z,0
2019-03-03T04:03:05.410Z,0
2019-03-03T04:04:06.220Z,0
2019-03-03T04:05:06.194Z,0
2019-03-03T04:06:08.285Z,0
2019-03-03T04:07:07.757Z,0
2019-03-03T04:08:09.013Z,0
2019-03-03T04:09:10.124Z,0
2019-03-03T04:10:10.111Z,0
2019-03-03T04:11:11.132Z,0
2019-03-03T04:12:12.123Z,0
2019-03-03T04:13:12.543Z,0
2019-03-03T04:14:14.240Z,0
2019-03-03T04:15:15.041Z,0
2019-03-03T04:16:16.564Z,0
2019-03-03T04:17:17.086Z,0
2019-03-03T04:18:18.332Z,0
2019-03-03T04:19:18.882Z,0
2019-03-03T04:20:18.856Z,0
2019-03-03T04:21:19.682Z,0
2019-03-03T04:22:20.215Z,0
2019-03-03T04:23:21.336Z,0
2019-03-03T04:24:21.302Z,0
2019-03-03T04:25:22.301Z,0
2019-03-03T04:26:23.549Z,0
2019-03-03T04:27:23.570Z,0
2019-03-03T04:28:24.535Z,0
2019-03-03T04:29:25.532Z,0
2019-03-03T04:30:26.811Z,0
2019-03-03T04:31:27.341Z,0
2019-03-03T04:32:28.028Z,0
2019-03-03T04:33:29.003Z,0
2019-03-03T04:34:28.975Z,0
2019-03-03T04:35:29.387Z,0
2019-03-03T04:36:30.638Z,0
2019-03-03T04:37:31.193Z,0
2019-03-03T04:38:31.606Z,0
2019-03-03T04:39:32.149Z,0
2019-03-03T04:40:32.283Z,0
2019-03-03T04:41:33.974Z,0
2019-03-03T04:42:34.110Z,0
2019-03-03T04:43:35.246Z,0
2019-03-03T04:44:36.978Z,0
2019-03-03T04:45:37.670Z,0
2019-03-03T04:46:38.639Z,0
2019-03-03T04:47:39.371Z,0
2019-03-03T04:48:39.785Z,0
2019-03-03T04:49:40.477Z,0
2019-03-03T04:50:40.611Z,0
2019-03-03T04:51:41.582Z,0
2019-03-03T04:52:41.712Z,0
2019-03-03T04:53:42.680Z,0
2019-03-03T04:54:43.648Z,0
2019-03-03T04:55:43.892Z,0
2019-03-03T04:56:43.910Z,0
2019-03-03T04:57:44.597Z,0
2019-03-03T04:58:45.628Z,0
2019-03-03T04:59:46.020Z,0
2019-03-03T05:00:45.437Z,0
2019-03-03T05:01:47.129Z,0
2019-03-03T05:02:47.545Z,0
2019-03-03T05:03:47.957Z,0
2019-03-03T05:04:48.643Z,0
2019-03-03T05:05:49.333Z,0
2019-03-03T05:06:50.023Z,0
2019-03-03T05:07:50.713Z,0
2019-03-03T05:08:50.845Z,0
2019-03-03T05:09:51.664Z,0
2019-03-03T05:10:52.077Z,0
2019-03-03T05:11:53.049Z,0
2019-03-03T05:12:53.778Z,0
2019-03-03T05:13:54.468Z,0
2019-03-03T05:14:55.161Z,0
2019-03-03T05:15:56.127Z,0
2019-03-03T05:16:56.817Z,0
2019-03-03T05:17:57.529Z,0
2019-03-03T05:18:57.943Z,0
2019-03-03T05:19:58.344Z,0
2019-03-03T05:20:59.036Z,0
2019-03-03T05:21:59.728Z,0
2019-03-03T05:23:00.139Z,0
2019-03-03T05:24:00.827Z,0
2019-03-03T05:25:01.720Z,0
2019-03-03T05:26:02.689Z,0
2019-03-03T05:27:03.381Z,0
2019-03-03T05:28:04.635Z,0
2019-03-03T05:29:05.323Z,0
2019-03-03T05:29:50.048Z,0
2019-03-03T05:30:50.733Z,0
2019-03-03T05:31:51.702Z,0
2019-03-03T05:32:52.396Z,0
2019-03-03T05:33:53.089Z,0
2019-03-03T05:34:54.401Z,0
2019-03-03T05:35:54.369Z,0
2019-03-03T05:36:55.057Z,0
2019-03-03T05:37:55.195Z,0
2019-03-03T05:38:56.610Z,0
2019-03-03T05:39:57.864Z,0
2019-03-03T05:40:58.255Z,0
2019-03-03T05:41:59.251Z,0
2019-03-03T05:42:59.944Z,5.63
2019-03-03T05:44:00.639Z,5.63
2019-03-03T05:45:01.053Z,5.63
2019-03-03T05:46:01.751Z,5.63
2019-03-03T05:47:02.168Z,5.63
2019-03-03T05:48:03.196Z,5.63
2019-03-03T05:49:03.888Z,5.63
2019-03-03T05:50:04.579Z,5.63
2019-03-03T05:51:05.292Z,11.25
2019-03-03T05:52:06.260Z,11.25
2019-03-03T05:53:06.395Z,11.25
2019-03-03T05:54:07.092Z,11.25
2019-03-03T05:55:07.512Z,11.25
2019-03-03T05:56:08.651Z,11.25
2019-03-03T05:57:09.617Z,16.88
2019-03-03T05:58:09.756Z,16.88
2019-03-03T05:59:11.193Z,16.88
2019-03-03T06:00:11.665Z,16.88
2019-03-03T06:01:12.209Z,22.5
2019-03-03T06:02:12.622Z,22.5
2019-03-03T06:03:13.044Z,22.5
2019-03-03T06:04:13.743Z,28.13
2019-03-03T06:05:13.886Z,28.13
2019-03-03T06:06:14.582Z,28.13
2019-03-03T06:07:15.544Z,33.75
2019-03-03T06:08:15.962Z,33.75
2019-03-03T06:09:16.928Z,39.38
2019-03-03T06:10:16.359Z,39.38
2019-03-03T06:11:17.788Z,39.38
2019-03-03T06:12:18.483Z,45
2019-03-03T06:13:18.177Z,45
2019-03-03T06:14:19.594Z,50.63
2019-03-03T06:15:20.007Z,50.63
2019-03-03T06:16:20.422Z,56.25
2019-03-03T06:17:20.840Z,56.25
2019-03-03T06:18:21.988Z,56.25
2019-03-03T06:19:22.680Z,61.88
2019-03-03T06:20:23.653Z,61.88
2019-03-03T06:21:24.485Z,78.75
2019-03-03T06:22:24.629Z,101.25
2019-03-03T06:23:25.647Z,112.5
2019-03-03T06:24:26.629Z,112.5
2019-03-03T06:25:29.028Z,101.25
2019-03-03T06:26:28.278Z,90
2019-03-03T06:27:28.745Z,90
2019-03-03T06:28:29.162Z,106.88
2019-03-03T06:29:30.581Z,95.63
2019-03-03T06:30:31.018Z,95.63
2019-03-03T06:31:31.437Z,123.75
2019-03-03T06:32:32.136Z,185.63
2019-03-03T06:33:32.827Z,236.25
2019-03-03T06:34:33.849Z,247.5
2019-03-03T06:35:34.827Z,247.5
2019-03-03T06:36:35.249Z,270
2019-03-03T06:37:35.948Z,213.75
2019-03-03T06:38:36.087Z,208.13
2019-03-03T06:39:37.061Z,208.13
2019-03-03T06:40:37.808Z,241.88
2019-03-03T06:41:38.639Z,219.38
2019-03-03T06:42:39.057Z,185.63
2019-03-03T06:43:39.801Z,303.75
2019-03-03T06:44:40.517Z,371.25
2019-03-03T06:45:41.487Z,354.38
2019-03-03T06:46:42.193Z,326.25
2019-03-03T06:47:42.887Z,286.88
2019-03-03T06:48:43.307Z,225
2019-03-03T06:49:44.727Z,247.5
2019-03-03T06:50:45.701Z,365.63
2019-03-03T06:51:46.255Z,438.75
2019-03-03T06:52:47.231Z,365.63
2019-03-03T06:53:47.422Z,331.88
2019-03-03T06:54:48.124Z,320.63
2019-03-03T06:55:48.825Z,292.5
2019-03-03T06:56:49.297Z,337.5
2019-03-03T06:57:50.829Z,337.5
2019-03-03T06:58:51.527Z,303.75
2019-03-03T06:59:52.502Z,286.88
2019-03-03T07:00:52.925Z,264.38
2019-03-03T07:01:54.051Z,208.13
2019-03-03T07:02:55.029Z,213.75
2019-03-03T07:03:55.727Z,236.25
2019-03-03T07:04:56.168Z,315
2019-03-03T07:05:56.865Z,326.25
2019-03-03T07:06:57.332Z,230.63
2019-03-03T07:07:58.313Z,247.5
2019-03-03T07:08:59.288Z,270
2019-03-03T07:09:59.989Z,275.63
2019-03-03T07:11:01.361Z,326.25
2019-03-03T07:12:01.194Z,343.13
2019-03-03T07:13:03.448Z,331.88
2019-03-03T07:14:02.870Z,354.38
2019-03-03T07:15:04.852Z,393.75
2019-03-03T07:16:06.105Z,365.63
2019-03-03T07:17:05.566Z,309.38
2019-03-03T07:18:06.551Z,309.38
2019-03-03T07:19:06.971Z,320.63
2019-03-03T07:20:07.717Z,388.13
2019-03-03T07:21:08.413Z,821.25
2019-03-03T07:22:09.800Z,793.13
2019-03-03T07:23:10.501Z,607.5
2019-03-03T07:24:10.660Z,523.13
2019-03-03T07:25:12.644Z,438.75
2019-03-03T07:26:13.065Z,292.5
2019-03-03T07:27:13.210Z,236.25
2019-03-03T07:28:13.634Z,219.38
2019-03-03T07:29:15.609Z,213.75
2019-03-03T07:30:16.030Z,202.5
2019-03-03T07:31:17.009Z,196.88
2019-03-03T07:32:16.850Z,196.88
2019-03-03T07:33:17.272Z,196.88
2019-03-03T07:34:19.024Z,196.88
2019-03-03T07:35:20.009Z,202.5
2019-03-03T07:36:20.458Z,208.13
2019-03-03T07:37:20.906Z,219.38
2019-03-03T07:38:21.910Z,348.75
2019-03-03T07:39:21.895Z,303.75
2019-03-03T07:40:23.587Z,281.25
2019-03-03T07:41:23.727Z,331.88
2019-03-03T07:42:25.136Z,421.88
2019-03-03T07:43:25.834Z,421.88
2019-03-03T07:44:26.329Z,399.38
2019-03-03T07:45:27.030Z,461.25
2019-03-03T07:46:27.486Z,556.88
2019-03-03T07:47:27.630Z,601.88
2019-03-03T07:48:29.606Z,630
2019-03-03T07:49:29.753Z,607.5
2019-03-03T07:50:31.451Z,675
2019-03-03T07:51:31.597Z,765
2019-03-03T07:52:34.640Z,894.38
2019-03-03T07:53:33.342Z,804.38
2019-03-03T07:54:33.807Z,1040.63
2019-03-03T07:55:34.510Z,1648.13
2019-03-03T07:56:34.656Z,1884.38
2019-03-03T07:57:36.078Z,1935
2019-03-03T07:58:36.230Z,1811.25
2019-03-03T07:59:37.492Z,1715.63
2019-03-03T08:00:38.197Z,1563.75
2019-03-03T08:01:39.177Z,1541.25
2019-03-03T08:02:39.738Z,1957.5
2019-03-03T08:03:40.167Z,1423.13
2019-03-03T08:04:41.151Z,1321.88
2019-03-03T08:05:41.859Z,1355.63
2019-03-03T08:06:42.328Z,1524.38
2019-03-03T08:07:42.481Z,1456.88
2019-03-03T08:08:44.023Z,1333.13
2019-03-03T08:09:44.729Z,1333.13
2019-03-03T08:10:45.437Z,1456.88
2019-03-03T08:11:46.152Z,1175.63
2019-03-03T08:12:46.767Z,1310.63
2019-03-03T08:13:47.475Z,1035
2019-03-03T08:14:47.905Z,905.63
2019-03-03T08:15:48.887Z,871.88
2019-03-03T08:16:49.039Z,1215
2019-03-03T08:17:50.310Z,1046.25
2019-03-03T08:18:50.736Z,793.13
2019-03-03T08:19:51.443Z,551.25
2019-03-03T08:20:51.875Z,708.75
2019-03-03T08:21:52.303Z,736.88
2019-03-03T08:22:53.744Z,776.25
2019-03-03T08:23:54.199Z,776.25
2019-03-03T08:24:54.925Z,776.25
2019-03-03T08:25:55.351Z,579.38
2019-03-03T08:26:56.775Z,573.75
2019-03-03T08:27:57.495Z,883.13
2019-03-03T08:28:57.651Z,1215
2019-03-03T08:29:59.082Z,1181.25
2019-03-03T08:31:00.074Z,1276.88
2019-03-03T08:32:00.224Z,1203.75
2019-03-03T08:33:01.343Z,1293.75
2019-03-03T08:34:01.772Z,1507.5
2019-03-03T08:35:02.313Z,1276.88
2019-03-03T08:36:03.350Z,1248.75
2019-03-03T08:37:04.334Z,1400.63
2019-03-03T08:38:05.597Z,1260
2019-03-03T08:39:05.787Z,933.75
2019-03-03T08:40:06.495Z,618.75
2019-03-03T08:41:06.645Z,596.25
2019-03-03T08:42:07.796Z,601.88
2019-03-03T08:43:08.663Z,601.88
2019-03-03T08:44:09.136Z,607.5
2019-03-03T08:45:10.122Z,646.88
2019-03-03T08:46:10.546Z,787.5
2019-03-03T08:47:11.806Z,770.63
2019-03-03T08:48:11.964Z,1108.13
2019-03-03T08:49:13.666Z,1051.88
2019-03-03T08:50:14.379Z,1153.13
2019-03-03T08:51:15.363Z,945
2019-03-03T08:52:16.071Z,1552.5
2019-03-03T08:53:17.190Z,1563.75
2019-03-03T08:54:18.177Z,1383.75
2019-03-03T08:55:18.883Z,1788.75
2019-03-03T08:56:19.595Z,2064.38
2019-03-03T08:57:20.296Z,2064.38
2019-03-03T08:58:20.446Z,2115
2019-03-03T08:59:21.434Z,2058.75
2019-03-03T09:00:22.156Z,2115
2019-03-03T09:01:22.591Z,2160
2019-03-03T09:02:23.299Z,2390.63
2019-03-03T09:03:23.718Z,2289.38
2019-03-03T09:04:24.986Z,2300.63
2019-03-03T09:05:25.703Z,1805.63
2019-03-03T09:06:26.133Z,1485
2019-03-03T09:07:27.287Z,1366.88
2019-03-03T09:08:29.014Z,1001.25
2019-03-03T09:09:29.164Z,1558.13
2019-03-03T09:10:30.597Z,1704.38
2019-03-03T09:11:31.308Z,1698.75
2019-03-03T09:12:32.742Z,1845
2019-03-03T09:13:34.432Z,1288.13
2019-03-03T09:14:34.870Z,1428.75
2019-03-03T09:15:35.299Z,1963.13
2019-03-03T09:16:36.457Z,2221.88
2019-03-03T09:17:37.718Z,821.25
2019-03-03T09:18:38.536Z,573.75
2019-03-03T09:19:37.694Z,742.5
2019-03-03T09:20:39.123Z,725.63
2019-03-03T09:21:39.555Z,686.25
2019-03-03T09:22:40.262Z,855
2019-03-03T09:23:41.235Z,635.63
2019-03-03T09:24:42.226Z,506.25
2019-03-03T09:25:42.693Z,500.63
2019-03-03T09:26:43.402Z,1203.75
2019-03-03T09:27:43.557Z,1963.13
2019-03-03T09:28:45.260Z,2227.5
2019-03-03T09:29:45.690Z,1338.75
2019-03-03T09:30:45.844Z,669.38
2019-03-03T09:31:46.996Z,1406.25
2019-03-03T09:32:48.534Z,2317.5
2019-03-03T09:33:51.124Z,2424.38
2019-03-03T09:34:50.110Z,2205
2019-03-03T09:35:50.818Z,2115
2019-03-03T09:36:51.810Z,1760.63
2019-03-03T09:37:52.797Z,2036.25
2019-03-03T09:38:53.543Z,2233.13
2019-03-03T09:39:53.696Z,2205
2019-03-03T09:40:54.150Z,2255.63
2019-03-03T09:41:54.582Z,2188.13
2019-03-03T09:42:56.012Z,2458.13
2019-03-03T09:43:57.134Z,2604.38
2019-03-03T09:44:57.846Z,2626.88
2019-03-03T09:45:58.003Z,2559.38
2019-03-03T09:46:59.721Z,2227.5
2019-03-03T09:48:00.196Z,1957.5
2019-03-03T09:49:00.632Z,1946.25
2019-03-03T09:50:00.953Z,1828.13
2019-03-03T09:51:02.254Z,1653.75
2019-03-03T09:52:03.247Z,1417.5
2019-03-03T09:53:04.231Z,1715.63
2019-03-03T09:54:04.803Z,1901.25
2019-03-03T09:55:05.790Z,1282.5
2019-03-03T09:56:06.521Z,630
2019-03-03T09:57:06.960Z,585
2019-03-03T09:58:07.389Z,635.63
2019-03-03T09:59:08.547Z,1501.88
2019-03-03T10:00:09.256Z,1231.88
2019-03-03T10:01:09.965Z,1203.75
2019-03-03T10:02:10.395Z,1063.13
2019-03-03T10:03:11.827Z,984.38
2019-03-03T10:04:12.411Z,1125
2019-03-03T10:05:13.563Z,984.38
2019-03-03T10:06:15.549Z,1220.63
2019-03-03T10:07:17.089Z,1181.25
2019-03-03T10:08:16.241Z,1575
2019-03-03T10:09:17.230Z,1777.5
2019-03-03T10:10:17.663Z,1710
2019-03-03T10:11:18.089Z,1867.5
2019-03-03T10:12:19.249Z,1940.63
2019-03-03T10:13:20.245Z,1445.63
2019-03-03T10:14:21.648Z,1035
2019-03-03T10:15:22.636Z,1597.5
2019-03-03T10:16:23.337Z,2536.88
2019-03-03T10:17:24.048Z,2463.75
2019-03-03T10:18:25.319Z,2593.13
2019-03-03T10:19:25.749Z,2604.38
2019-03-03T10:20:26.461Z,2806.88
2019-03-03T10:21:27.445Z,2885.63
2019-03-03T10:22:27.435Z,2885.63
2019-03-03T10:23:28.423Z,2829.38
2019-03-03T10:24:29.126Z,2851.88
2019-03-03T10:25:30.115Z,2812.5
2019-03-03T10:26:30.549Z,2683.13
2019-03-03T10:27:31.261Z,2835
2019-03-03T10:28:31.531Z,2823.75
2019-03-03T10:29:31.962Z,2857.5
2019-03-03T10:30:33.672Z,3009.38
2019-03-03T10:31:34.113Z,3178.13
2019-03-03T10:32:34.543Z,3189.38
2019-03-03T10:33:36.281Z,3054.38
2019-03-03T10:34:37.134Z,2700
2019-03-03T10:35:37.620Z,2964.38
2019-03-03T10:36:38.332Z,2857.5
2019-03-03T10:37:38.792Z,2790
2019-03-03T10:38:39.787Z,2857.5
2019-03-03T10:39:40.499Z,2778.75
2019-03-03T10:40:41.765Z,2891.25
2019-03-03T10:41:42.489Z,2964.38
2019-03-03T10:42:43.479Z,3060
2019-03-03T10:43:44.748Z,2953.13
2019-03-03T10:44:45.601Z,3048.75
2019-03-03T10:45:46.592Z,2998.13
2019-03-03T10:46:47.034Z,3009.38
2019-03-03T10:47:47.471Z,2221.88
2019-03-03T10:48:47.625Z,2896.88
2019-03-03T10:49:49.106Z,2919.38
2019-03-03T10:50:49.819Z,3099.38
2019-03-03T10:51:50.534Z,3076.88
2019-03-03T10:52:51.077Z,2998.13
2019-03-03T10:53:51.814Z,2525.63
2019-03-03T10:54:52.671Z,2975.63
2019-03-03T10:55:53.104Z,2896.88
2019-03-03T10:56:54.816Z,2761.88
2019-03-03T10:57:55.526Z,2486.25
2019-03-03T10:58:55.680Z,2548.13
2019-03-03T10:59:57.377Z,2520
2019-03-03T11:00:58.087Z,2525.63
2019-03-03T11:01:58.847Z,2368.13
2019-03-03T11:02:59.839Z,2351.25
2019-03-03T11:03:59.778Z,2536.88
2019-03-03T11:05:00.715Z,2514.38
2019-03-03T11:06:01.705Z,2205
2019-03-03T11:07:02.710Z,2250
2019-03-03T11:08:02.978Z,2199.38
2019-03-03T11:09:03.696Z,2075.63
2019-03-03T11:10:04.408Z,2193.75
2019-03-03T11:11:05.146Z,2205
2019-03-03T11:12:05.575Z,2109.38
2019-03-03T11:13:05.728Z,2115
2019-03-03T11:14:08.771Z,1805.63
2019-03-03T11:15:07.780Z,1974.38
2019-03-03T11:15:20.657Z,2013.75
2019-03-03T11:16:20.846Z,2025
2019-03-03T11:17:21.279Z,1985.63
2019-03-03T11:18:22.547Z,1749.38
2019-03-03T11:19:22.704Z,1811.25
2019-03-03T11:20:23.859Z,1743.75
2019-03-03T11:21:25.566Z,1445.63
2019-03-03T11:22:25.722Z,1468.13
2019-03-03T11:23:27.436Z,1575
2019-03-03T11:24:28.159Z,1642.5
2019-03-03T11:25:28.595Z,1462.5
2019-03-03T11:26:29.003Z,1366.88
2019-03-03T11:27:30.029Z,1507.5
2019-03-03T11:28:31.019Z,1468.13
2019-03-03T11:29:31.453Z,1361.25
2019-03-03T11:30:32.469Z,1310.63
2019-03-03T11:31:33.481Z,1125
2019-03-03T11:32:33.639Z,956.25
2019-03-03T11:33:35.409Z,1113.75
2019-03-03T11:34:36.178Z,1153.13
2019-03-03T11:35:36.614Z,1023.75
2019-03-03T11:36:37.188Z,1119.38
2019-03-03T11:37:37.345Z,1271.25
2019-03-03T11:38:38.332Z,1406.25
2019-03-03T11:39:38.491Z,1575
2019-03-03T11:40:40.756Z,1400.63
2019-03-03T11:41:40.746Z,1153.13
2019-03-03T11:42:41.451Z,916.88
2019-03-03T11:43:42.162Z,905.63
2019-03-03T11:44:42.874Z,1063.13
2019-03-03T11:45:43.308Z,1085.63
2019-03-03T11:46:43.792Z,832.5
2019-03-03T11:47:44.499Z,798.75
2019-03-03T11:48:44.653Z,804.38
2019-03-03T11:49:46.391Z,815.63
2019-03-03T11:50:47.962Z,810
2019-03-03T11:51:48.118Z,843.75
2019-03-03T11:52:48.869Z,888.75
2019-03-03T11:53:49.301Z,984.38
2019-03-03T11:54:50.287Z,1136.25
2019-03-03T11:55:51.275Z,1125
2019-03-03T11:56:51.840Z,1108.13
2019-03-03T11:57:51.996Z,1006.88
2019-03-03T11:58:53.426Z,1051.88
2019-03-03T11:59:54.135Z,1063.13
2019-03-03T12:00:54.288Z,995.63
2019-03-03T12:01:56.001Z,945
2019-03-03T12:02:56.710Z,1141.88
2019-03-03T12:03:56.868Z,1096.88
2019-03-03T12:04:58.023Z,1136.25
2019-03-03T12:05:59.458Z,1203.75
2019-03-03T12:07:00.137Z,1209.38
2019-03-03T12:08:00.681Z,1338.75
2019-03-03T12:09:00.955Z,1203.75
2019-03-03T12:10:01.994Z,1344.38
2019-03-03T12:11:03.003Z,1237.5
2019-03-03T12:12:03.716Z,1406.25
2019-03-03T12:13:04.422Z,1575
2019-03-03T12:14:05.463Z,1501.88
2019-03-03T12:15:06.172Z,1378.13
2019-03-03T12:16:06.633Z,1361.25
2019-03-03T12:17:07.478Z,1743.75
2019-03-03T12:18:08.191Z,2058.75
2019-03-03T12:19:09.186Z,2255.63
2019-03-03T12:20:09.350Z,2160
2019-03-03T12:21:10.061Z,2036.25
2019-03-03T12:22:10.507Z,1906.88
2019-03-03T12:23:11.939Z,1687.5
2019-03-03T12:24:12.645Z,1569.38
2019-03-03T12:25:12.802Z,1344.38
2019-03-03T12:26:15.346Z,1243.13
2019-03-03T12:27:15.754Z,1434.38
2019-03-03T12:28:15.186Z,1479.38
2019-03-03T12:29:16.340Z,1490.63
2019-03-03T12:30:18.324Z,1417.5
2019-03-03T12:31:18.038Z,1344.38
2019-03-03T12:32:18.745Z,1333.13
2019-03-03T12:33:19.740Z,1125
2019-03-03T12:34:19.894Z,1265.63
2019-03-03T12:35:21.323Z,1181.25
2019-03-03T12:36:22.310Z,1198.13
2019-03-03T12:37:22.289Z,1355.63
2019-03-03T12:38:23.037Z,1378.13
2019-03-03T12:39:23.763Z,1226.25
2019-03-03T12:40:24.200Z,1389.38
2019-03-03T12:41:25.190Z,1665
2019-03-03T12:42:25.904Z,1985.63
2019-03-03T12:43:26.333Z,2227.5
2019-03-03T12:44:27.496Z,2081.25
2019-03-03T12:45:28.482Z,2086.88
2019-03-03T12:46:28.920Z,1985.63
2019-03-03T12:47:30.048Z,2193.75
2019-03-03T12:48:30.756Z,2216.25
2019-03-03T12:49:31.743Z,2233.13
2019-03-03T12:50:32.728Z,2131.88
2019-03-03T12:51:33.161Z,2385
2019-03-03T12:52:33.871Z,2418.75
2019-03-03T12:53:34.307Z,2221.88
2019-03-03T12:54:35.569Z,2210.63
2019-03-03T12:55:36.280Z,2266.88
2019-03-03T12:56:36.433Z,2379.38
2019-03-03T12:57:38.195Z,2216.25
2019-03-03T12:58:38.630Z,2340
2019-03-03T12:59:39.343Z,2373.75
2019-03-03T13:00:40.098Z,2081.25
2019-03-03T13:01:40.537Z,2053.13
2019-03-03T13:02:41.243Z,2120.63
2019-03-03T13:03:42.679Z,2176.88
2019-03-03T13:04:43.660Z,1794.38
2019-03-03T13:05:44.102Z,1901.25
2019-03-03T13:06:45.089Z,2064.38
2019-03-03T13:07:45.509Z,2070
2019-03-03T13:08:46.244Z,1968.75
2019-03-03T13:09:47.232Z,1811.25
2019-03-03T13:10:48.789Z,1338.75
2019-03-03T13:11:48.219Z,1074.38
2019-03-03T13:12:49.373Z,1558.13
2019-03-03T13:13:50.693Z,1558.13
2019-03-03T13:14:50.837Z,1659.38
2019-03-03T13:15:52.563Z,1929.38
2019-03-03T13:16:53.551Z,1760.63
2019-03-03T13:17:54.959Z,1771.88
2019-03-03T13:18:54.666Z,1687.5
2019-03-03T13:19:55.374Z,1361.25
2019-03-03T13:20:55.807Z,1186.88
2019-03-03T13:21:57.235Z,1338.75
2019-03-03T13:22:58.243Z,1670.63
2019-03-03T13:23:58.262Z,1445.63
2019-03-03T13:24:58.972Z,1693.13
2019-03-03T13:26:00.236Z,1586.25
2019-03-03T13:27:00.668Z,1580.63
2019-03-03T13:28:01.517Z,1462.5
2019-03-03T13:29:02.279Z,1524.38
2019-03-03T13:30:03.266Z,1513.13